createdAt,value
2023-05-23T00:00:13.617Z,1003.94
2023-05-23T00:01:13.622Z,1003.98
2023-05-23T00:02:13.681Z,1003.96
2023-05-23T00:03:13.615Z,1003.99
2023-05-23T00:04:13.596Z,1003.94
2023-05-23T00:05:13.557Z,1003.91
2023-05-23T00:06:13.544Z,1003.83
2023-05-23T00:07:13.580Z,1003.87
2023-05-23T00:08:13.520Z,1003.82
2023-05-23T00:09:13.487Z,1003.84
2023-05-23T00:10:13.480Z,1003.90
2023-05-23T00:11:13.487Z,1003.89
2023-05-23T00:12:13.501Z,1003.89
2023-05-23T00:13:13.451Z,1003.94
2023-05-23T00:14:13.459Z,1003.88
2023-05-23T00:15:13.406Z,1003.88
2023-05-23T00:16:13.402Z,1003.91
2023-05-23T00:17:13.411Z,1003.82
2023-05-23T00:18:13.573Z,1003.89
2023-05-23T00:19:13.411Z,1003.91
2023-05-23T00:20:13.342Z,1003.96
2023-05-23T00:21:13.337Z,1003.92
2023-05-23T00:22:13.310Z,1003.92
2023-05-23T00:23:13.339Z,1003.93
2023-05-23T00:24:13.311Z,1003.86
2023-05-23T00:25:13.279Z,1003.95
2023-05-23T00:26:13.273Z,1003.93
2023-05-23T00:27:13.278Z,1003.98
2023-05-23T00:28:13.237Z,1003.97
2023-05-23T00:29:13.290Z,1004.03
2023-05-23T00:30:13.212Z,1004.01
2023-05-23T00:31:13.283Z,1003.98
2023-05-23T00:32:13.196Z,1003.97
2023-05-23T00:33:13.160Z,1004.09
2023-05-23T00:34:13.192Z,1004.05
2023-05-23T00:35:13.138Z,1004.02
2023-05-23T00:36:13.139Z,1004.02
2023-05-23T00:37:13.112Z,1004.05
2023-05-23T00:38:13.104Z,1004.07
2023-05-23T00:39:13.111Z,1004.05
2023-05-23T00:40:13.083Z,1004.06
2023-05-23T00:41:13.078Z,1004.06
2023-05-23T00:42:13.043Z,1004.09
2023-05-23T00:43:13.043Z,1004.06
2023-05-23T00:44:13.028Z,1004.06
2023-05-23T00:45:13.054Z,1004.13
2023-05-23T00:46:13.019Z,1004.12
2023-05-23T00:47:12.990Z,1004.11
2023-05-23T00:48:12.962Z,1004.10
2023-05-23T00:49:12.955Z,1004.19
2023-05-23T00:50:12.952Z,1004.11
2023-05-23T00:51:12.981Z,1004.01
2023-05-23T00:52:12.918Z,1004.08
2023-05-23T00:53:12.891Z,1004.04
2023-05-23T00:54:12.889Z,1004.05
2023-05-23T00:55:12.866Z,1004.18
2023-05-23T00:56:12.878Z,1004.27
2023-05-23T00:57:12.849Z,1004.18
2023-05-23T00:58:12.828Z,1004.17
2023-05-23T00:59:12.815Z,1004.18
2023-05-23T01:00:12.810Z,1004.24
2023-05-23T01:01:12.832Z,1004.24
2023-05-23T01:02:12.919Z,1004.28
2023-05-23T01:03:12.919Z,1004.33
2023-05-23T01:04:12.864Z,1004.24
2023-05-23T01:05:12.732Z,1004.26
2023-05-23T01:06:12.732Z,1004.28
2023-05-23T01:07:12.710Z,1004.24
2023-05-23T01:08:12.723Z,1004.27
2023-05-23T01:09:12.683Z,1004.31
2023-05-23T01:10:12.696Z,1004.30
2023-05-23T01:11:12.671Z,1004.20
2023-05-23T01:12:12.652Z,1004.27
2023-05-23T01:13:12.680Z,1004.18
2023-05-23T01:14:12.621Z,1004.22
2023-05-23T01:15:12.664Z,1004.19
2023-05-23T01:16:12.701Z,1004.29
2023-05-23T01:17:12.581Z,1004.29
2023-05-23T01:18:12.569Z,1004.28
2023-05-23T01:19:12.647Z,1004.26
2023-05-23T01:20:12.557Z,1004.30
2023-05-23T01:21:12.531Z,1004.23
2023-05-23T01:22:12.540Z,1004.23
2023-05-23T01:23:12.516Z,1004.22
2023-05-23T01:24:12.518Z,1004.19
2023-05-23T01:25:12.479Z,1004.30
2023-05-23T01:26:12.458Z,1004.27
2023-05-23T01:27:12.489Z,1004.23
2023-05-23T01:28:12.444Z,1004.23
2023-05-23T01:29:12.412Z,1004.21
2023-05-23T01:30:12.409Z,1004.28
2023-05-23T01:31:12.437Z,1004.24
2023-05-23T01:32:12.434Z,1004.14
2023-05-23T01:33:12.653Z,1004.20
2023-05-23T01:34:12.373Z,1004.23
2023-05-23T01:35:12.336Z,1004.21
2023-05-23T01:36:12.334Z,1004.26
2023-05-23T01:37:12.320Z,1004.20
2023-05-23T01:38:12.321Z,1004.22
2023-05-23T01:39:12.326Z,1004.26
2023-05-23T01:40:12.287Z,1004.26
2023-05-23T01:41:12.268Z,1004.24
2023-05-23T01:42:12.244Z,1004.25
2023-05-23T01:43:12.249Z,1004.23
2023-05-23T01:44:12.246Z,1004.27
2023-05-23T01:45:12.218Z,1004.26
2023-05-23T01:46:12.228Z,1004.23
2023-05-23T01:47:12.182Z,1004.33
2023-05-23T01:48:12.169Z,1004.31
2023-05-23T01:49:12.232Z,1004.25
2023-05-23T01:50:12.160Z,1004.23
2023-05-23T01:51:12.172Z,1004.28
2023-05-23T01:52:12.128Z,1004.27
2023-05-23T01:53:12.118Z,1004.32
2023-05-23T01:54:12.109Z,1004.27
2023-05-23T01:55:12.177Z,1004.27
2023-05-23T01:56:12.105Z,1004.27
2023-05-23T01:57:12.090Z,1004.18
2023-05-23T01:58:12.078Z,1004.25
2023-05-23T01:59:12.032Z,1004.24
2023-05-23T02:00:12.035Z,1004.21
2023-05-23T02:01:12.073Z,1004.18
2023-05-23T02:02:12.018Z,1004.32
2023-05-23T02:03:12.170Z,1004.26
2023-05-23T02:04:11.980Z,1004.29
2023-05-23T02:05:11.968Z,1004.31
2023-05-23T02:06:12.003Z,1004.28
2023-05-23T02:07:11.937Z,1004.31
2023-05-23T02:08:11.920Z,1004.43
2023-05-23T02:09:11.907Z,1004.40
2023-05-23T02:10:11.900Z,1004.42
2023-05-23T02:11:11.886Z,1004.41
2023-05-23T02:12:11.896Z,1004.41
2023-05-23T02:13:11.870Z,1004.39
2023-05-23T02:14:11.857Z,1004.39
2023-05-23T02:15:11.894Z,1004.39
2023-05-23T02:16:11.826Z,1004.41
2023-05-23T02:17:11.849Z,1004.36
2023-05-23T02:18:11.803Z,1004.30
2023-05-23T02:19:11.803Z,1004.37
2023-05-23T02:20:11.764Z,1004.34
2023-05-23T02:21:11.766Z,1004.38
2023-05-23T02:22:11.732Z,1004.38
2023-05-23T02:23:11.725Z,1004.35
2023-05-23T02:24:11.716Z,1004.32
2023-05-23T02:25:11.729Z,1004.32
2023-05-23T02:26:11.722Z,1004.31
2023-05-23T02:27:11.670Z,1004.36
2023-05-23T02:28:11.659Z,1004.39
2023-05-23T02:29:11.717Z,1004.37
2023-05-23T02:30:11.664Z,1004.41
2023-05-23T02:31:11.630Z,1004.37
2023-05-23T02:32:11.626Z,1004.41
2023-05-23T02:33:11.639Z,1004.38
2023-05-23T02:34:11.648Z,1004.35
2023-05-23T02:35:11.571Z,1004.31
2023-05-23T02:36:11.557Z,1004.33
2023-05-23T02:37:11.597Z,1004.39
2023-05-23T02:38:11.548Z,1004.40
2023-05-23T02:39:11.525Z,1004.39
2023-05-23T02:40:11.512Z,1004.43
2023-05-23T02:41:11.496Z,1004.40
2023-05-23T02:42:11.488Z,1004.44
2023-05-23T02:43:11.501Z,1004.40
2023-05-23T02:44:11.453Z,1004.42
2023-05-23T02:45:11.457Z,1004.45
2023-05-23T02:46:11.468Z,1004.43
2023-05-23T02:47:11.419Z,1004.41
2023-05-23T02:48:11.420Z,1004.46
2023-05-23T02:49:11.418Z,1004.40
2023-05-23T02:50:11.382Z,1004.38
2023-05-23T02:51:11.377Z,1004.48
2023-05-23T02:52:11.372Z,1004.48
2023-05-23T02:53:11.379Z,1004.51
2023-05-23T02:54:11.403Z,1004.48
2023-05-23T02:55:11.318Z,1004.51
2023-05-23T02:56:11.301Z,1004.48
2023-05-23T02:57:11.301Z,1004.50
2023-05-23T02:58:11.298Z,1004.52
2023-05-23T02:59:11.295Z,1004.50
2023-05-23T03:00:11.274Z,1004.52
2023-05-23T03:01:11.372Z,1004.44
2023-05-23T03:02:11.305Z,1004.47
2023-05-23T03:03:11.361Z,1004.49
2023-05-23T03:04:11.236Z,1004.53
2023-05-23T03:05:11.193Z,1004.44
2023-05-23T03:06:11.171Z,1004.52
2023-05-23T03:07:17.196Z,1004.48
2023-05-23T03:08:12.151Z,1004.48
2023-05-23T03:09:11.153Z,1004.49
2023-05-23T03:10:11.155Z,1004.46
2023-05-23T03:11:11.122Z,1004.53
2023-05-23T03:12:11.108Z,1004.55
2023-05-23T03:13:11.129Z,1004.56
2023-05-23T03:14:11.109Z,1004.53
2023-05-23T03:15:11.067Z,1004.52
2023-05-23T03:16:11.153Z,1004.55
2023-05-23T03:17:11.076Z,1004.51
2023-05-23T03:18:11.038Z,1004.50
2023-05-23T03:19:11.053Z,1004.56
2023-05-23T03:20:10.996Z,1004.58
2023-05-23T03:21:10.988Z,1004.59
2023-05-23T03:22:10.989Z,1004.62
2023-05-23T03:23:11.015Z,1004.60
2023-05-23T03:24:10.957Z,1004.61
2023-05-23T03:25:10.954Z,1004.60
2023-05-23T03:26:10.964Z,1004.59
2023-05-23T03:27:10.920Z,1004.59
2023-05-23T03:28:10.898Z,1004.57
2023-05-23T03:29:11.022Z,1004.64
2023-05-23T03:30:10.895Z,1004.66
2023-05-23T03:31:10.863Z,1004.62
2023-05-23T03:32:10.917Z,1004.72
2023-05-23T03:33:10.830Z,1004.70
2023-05-23T03:34:10.863Z,1004.75
2023-05-23T03:35:10.848Z,1004.72
2023-05-23T03:36:10.805Z,1004.76
2023-05-23T03:37:10.810Z,1004.76
2023-05-23T03:38:10.844Z,1004.74
2023-05-23T03:39:10.829Z,1004.74
2023-05-23T03:40:10.801Z,1004.79
2023-05-23T03:41:10.840Z,1004.72
2023-05-23T03:42:10.726Z,1004.74
2023-05-23T03:43:10.754Z,1004.75
2023-05-23T03:44:10.765Z,1004.81
2023-05-23T03:45:10.696Z,1004.78
2023-05-23T03:46:10.742Z,1004.72
2023-05-23T03:47:10.676Z,1004.81
2023-05-23T03:48:10.737Z,1004.80
2023-05-23T03:49:10.657Z,1004.85
2023-05-23T03:50:10.630Z,1004.88
2023-05-23T03:51:10.616Z,1004.73
2023-05-23T03:52:10.584Z,1004.94
2023-05-23T03:53:10.595Z,1004.85
2023-05-23T03:54:10.599Z,1004.94
2023-05-23T03:55:10.561Z,1004.95
2023-05-23T03:56:10.541Z,1005.00
2023-05-23T03:57:10.668Z,1004.97
2023-05-23T03:58:10.506Z,1005.07
2023-05-23T03:59:10.512Z,1005.04
2023-05-23T04:00:10.559Z,1005.11
2023-05-23T04:01:10.517Z,1005.08
2023-05-23T04:02:10.507Z,1005.05
2023-05-23T04:03:10.563Z,1005.03
2023-05-23T04:04:10.539Z,1005.12
2023-05-23T04:05:10.439Z,1005.12
2023-05-23T04:06:12.207Z,1005.11
2023-05-23T04:07:10.398Z,1005.14
2023-05-23T04:08:10.394Z,1005.11
2023-05-23T04:09:10.390Z,1005.17
2023-05-23T04:10:10.352Z,1005.08
2023-05-23T04:11:10.360Z,1005.17
2023-05-23T04:12:10.337Z,1005.14
2023-05-23T04:13:10.379Z,1005.16
2023-05-23T04:14:10.349Z,1005.18
2023-05-23T04:15:10.313Z,1005.17
2023-05-23T04:16:10.380Z,1005.19
2023-05-23T04:17:10.297Z,1005.08
2023-05-23T04:18:10.293Z,1005.03
2023-05-23T04:19:10.361Z,1005.14
2023-05-23T04:20:10.313Z,1005.17
2023-05-23T04:21:10.265Z,1005.15
2023-05-23T04:22:10.299Z,1005.16
2023-05-23T04:23:10.361Z,1005.25
2023-05-23T04:24:10.191Z,1005.16
2023-05-23T04:25:10.217Z,1005.30
2023-05-23T04:26:10.177Z,1005.23
2023-05-23T04:27:10.289Z,1005.18
2023-05-23T04:28:10.294Z,1005.22
2023-05-23T04:29:10.117Z,1005.25
2023-05-23T04:30:10.173Z,1005.18
2023-05-23T04:31:10.152Z,1005.21
2023-05-23T04:32:10.131Z,1005.19
2023-05-23T04:33:10.248Z,1005.23
2023-05-23T04:34:10.063Z,1005.21
2023-05-23T04:35:11.691Z,1005.20
2023-05-23T04:36:10.039Z,1005.21
2023-05-23T04:37:10.027Z,1005.27
2023-05-23T04:38:10.046Z,1005.19
2023-05-23T04:39:10.024Z,1005.31
2023-05-23T04:40:10.005Z,1005.27
2023-05-23T04:41:09.995Z,1005.30
2023-05-23T04:42:09.994Z,1005.30
2023-05-23T04:43:09.974Z,1005.32
2023-05-23T04:44:10.005Z,1005.25
2023-05-23T04:45:09.912Z,1005.29
2023-05-23T04:46:09.946Z,1005.28
2023-05-23T04:47:10.023Z,1005.29
2023-05-23T04:48:09.975Z,1005.34
2023-05-23T04:49:09.919Z,1005.27
2023-05-23T04:50:09.912Z,1005.28
2023-05-23T04:51:09.858Z,1005.29
2023-05-23T04:52:09.872Z,1005.32
2023-05-23T04:53:09.830Z,1005.28
2023-05-23T04:54:09.789Z,1005.29
2023-05-23T04:55:09.815Z,1005.28
2023-05-23T04:56:09.771Z,1005.29
2023-05-23T04:57:09.776Z,1005.32
2023-05-23T04:58:09.810Z,1005.31
2023-05-23T04:59:09.765Z,1005.32
2023-05-23T05:00:09.756Z,1005.33
2023-05-23T05:01:09.907Z,1005.33
2023-05-23T05:02:09.698Z,1005.34
2023-05-23T05:03:09.860Z,1005.38
2023-05-23T05:04:09.689Z,1005.38
2023-05-23T05:05:09.653Z,1005.38
2023-05-23T05:06:09.670Z,1005.38
2023-05-23T05:07:09.625Z,1005.37
2023-05-23T05:08:09.633Z,1005.38
2023-05-23T05:09:09.592Z,1005.44
2023-05-23T05:10:09.571Z,1005.38
2023-05-23T05:11:09.575Z,1005.45
2023-05-23T05:12:09.562Z,1005.41
2023-05-23T05:13:09.590Z,1005.42
2023-05-23T05:14:09.553Z,1005.41
2023-05-23T05:15:09.533Z,1005.42
2023-05-23T05:16:09.541Z,1005.48
2023-05-23T05:17:09.557Z,1005.39
2023-05-23T05:18:09.531Z,1005.51
2023-05-23T05:19:09.573Z,1005.41
2023-05-23T05:20:09.451Z,1005.48
2023-05-23T05:21:09.437Z,1005.50
2023-05-23T05:22:09.422Z,1005.45
2023-05-23T05:23:09.404Z,1005.56
2023-05-23T05:24:09.428Z,1005.46
2023-05-23T05:25:09.394Z,1005.47
2023-05-23T05:26:09.429Z,1005.52
2023-05-23T05:27:09.375Z,1005.52
2023-05-23T05:28:09.362Z,1005.54
2023-05-23T05:29:09.364Z,1005.54
2023-05-23T05:30:09.485Z,1005.59
2023-05-23T05:31:09.309Z,1005.58
2023-05-23T05:32:09.313Z,1005.57
2023-05-23T05:33:09.336Z,1005.60
2023-05-23T05:34:09.279Z,1005.57
2023-05-23T05:35:09.280Z,1005.62
2023-05-23T05:36:09.283Z,1005.67
2023-05-23T05:37:09.293Z,1005.68
2023-05-23T05:38:09.248Z,1005.72
2023-05-23T05:39:09.241Z,1005.61
2023-05-23T05:40:09.214Z,1005.64
2023-05-23T05:41:09.631Z,1005.73
2023-05-23T05:42:09.203Z,1005.72
2023-05-23T05:43:09.197Z,1005.75
2023-05-23T05:44:09.164Z,1005.74
2023-05-23T05:45:09.130Z,1005.78
2023-05-23T05:46:09.190Z,1005.75
2023-05-23T05:47:09.198Z,1005.75
2023-05-23T05:48:09.160Z,1005.77
2023-05-23T05:49:10.403Z,1005.81
2023-05-23T05:50:09.076Z,1005.73
2023-05-23T05:51:09.114Z,1005.78
2023-05-23T05:52:09.102Z,1005.73
2023-05-23T05:53:09.036Z,1005.83
2023-05-23T05:54:09.101Z,1005.81
2023-05-23T05:55:09.033Z,1005.74
2023-05-23T05:56:08.998Z,1005.78
2023-05-23T05:57:09.024Z,1005.83
2023-05-23T05:58:08.986Z,1005.81
2023-05-23T05:59:08.980Z,1005.86
2023-05-23T06:00:09.023Z,1005.87
2023-05-23T06:01:08.957Z,1005.84
2023-05-23T06:02:08.965Z,1005.84
2023-05-23T06:03:09.013Z,1005.85
2023-05-23T06:04:09.045Z,1005.91
2023-05-23T06:05:08.902Z,1005.92
2023-05-23T06:06:08.866Z,1005.87
2023-05-23T06:07:08.847Z,1005.87
2023-05-23T06:08:08.837Z,1005.87
2023-05-23T06:09:08.862Z,1005.83
2023-05-23T06:10:08.840Z,1005.81
2023-05-23T06:11:08.795Z,1005.87
2023-05-23T06:12:08.783Z,1005.85
2023-05-23T06:13:08.776Z,1005.90
2023-05-23T06:14:08.790Z,1005.80
2023-05-23T06:15:08.774Z,1005.88
2023-05-23T06:16:08.803Z,1005.89
2023-05-23T06:17:08.721Z,1005.84
2023-05-23T06:18:08.757Z,1005.83
2023-05-23T06:19:08.806Z,1005.92
2023-05-23T06:20:08.699Z,1005.99
2023-05-23T06:21:08.697Z,1005.88
2023-05-23T06:22:08.676Z,1005.93
2023-05-23T06:23:08.651Z,1005.94
2023-05-23T06:24:08.644Z,1005.94
2023-05-23T06:25:08.617Z,1005.93
2023-05-23T06:26:08.609Z,1005.98
2023-05-23T06:27:08.637Z,1005.96
2023-05-23T06:28:08.590Z,1005.98
2023-05-23T06:29:08.590Z,1005.99
2023-05-23T06:30:08.573Z,1006.01
2023-05-23T06:31:08.588Z,1006.03
2023-05-23T06:32:08.646Z,1006.01
2023-05-23T06:33:08.639Z,1006.01
2023-05-23T06:34:08.508Z,1006.06
2023-05-23T06:35:08.534Z,1006.02
2023-05-23T06:36:08.479Z,1006.04
2023-05-23T06:37:08.486Z,1006.10
2023-05-23T06:38:08.456Z,1006.07
2023-05-23T06:39:08.435Z,1006.07
2023-05-23T06:40:08.444Z,1006.03
2023-05-23T06:41:08.410Z,1006.08
2023-05-23T06:42:08.428Z,1006.06
2023-05-23T06:43:08.389Z,1006.15
2023-05-23T06:44:08.377Z,1006.08
2023-05-23T06:45:08.399Z,1006.08
2023-05-23T06:46:08.381Z,1006.02
2023-05-23T06:47:08.425Z,1006.11
2023-05-23T06:48:08.338Z,1006.14
2023-05-23T06:49:14.900Z,1006.06
2023-05-23T06:50:09.301Z,1006.10
2023-05-23T06:51:08.308Z,1006.14
2023-05-23T06:52:08.288Z,1006.21
2023-05-23T06:53:08.457Z,1006.20
2023-05-23T06:54:08.253Z,1006.19
2023-05-23T06:55:08.240Z,1006.20
2023-05-23T06:56:08.221Z,1006.28
2023-05-23T06:57:08.221Z,1006.27
2023-05-23T06:58:08.221Z,1006.28
2023-05-23T06:59:08.178Z,1006.27
2023-05-23T07:00:08.194Z,1006.32
2023-05-23T07:01:08.191Z,1006.30
2023-05-23T07:02:08.138Z,1006.43
2023-05-23T07:03:08.141Z,1006.33
2023-05-23T07:04:08.137Z,1006.32
2023-05-23T07:05:08.164Z,1006.35
2023-05-23T07:06:08.104Z,1006.43
2023-05-23T07:07:08.077Z,1006.40
2023-05-23T07:08:08.082Z,1006.49
2023-05-23T07:09:08.142Z,1006.46
2023-05-23T07:10:08.061Z,1006.44
2023-05-23T07:11:08.037Z,1006.33
2023-05-23T07:12:08.025Z,1006.49
2023-05-23T07:13:08.005Z,1006.54
2023-05-23T07:14:07.991Z,1006.51
2023-05-23T07:15:08.027Z,1006.42
2023-05-23T07:16:07.984Z,1006.50
2023-05-23T07:17:08.014Z,1006.50
2023-05-23T07:18:08.036Z,1006.51
2023-05-23T07:19:07.986Z,1006.55
2023-05-23T07:20:07.957Z,1006.57
2023-05-23T07:21:07.905Z,1006.54
2023-05-23T07:22:07.884Z,1006.56
2023-05-23T07:23:07.881Z,1006.58
2023-05-23T07:24:07.866Z,1006.59
2023-05-23T07:25:07.856Z,1006.60
2023-05-23T07:26:07.847Z,1006.54
2023-05-23T07:27:07.838Z,1006.61
2023-05-23T07:28:07.806Z,1006.70
2023-05-23T07:29:07.802Z,1006.64
2023-05-23T07:30:07.780Z,1006.71
2023-05-23T07:31:07.940Z,1006.67
2023-05-23T07:32:07.766Z,1006.74
2023-05-23T07:33:07.798Z,1006.65
2023-05-23T07:34:07.740Z,1006.78
2023-05-23T07:35:07.730Z,1006.73
2023-05-23T07:36:07.716Z,1006.70
2023-05-23T07:37:07.708Z,1006.71
2023-05-23T07:38:08.543Z,1006.71
2023-05-23T07:39:07.707Z,1006.68
2023-05-23T07:40:07.737Z,1006.82
2023-05-23T07:41:12.051Z,1006.75
2023-05-23T07:42:07.680Z,1006.79
2023-05-23T07:43:07.617Z,1006.79
2023-05-23T07:44:07.650Z,1006.80
2023-05-23T07:45:07.595Z,1006.77
2023-05-23T07:46:07.673Z,1006.81
2023-05-23T07:47:07.558Z,1006.90
2023-05-23T07:48:07.670Z,1006.86
2023-05-23T07:49:07.536Z,1006.82
2023-05-23T07:50:07.528Z,1006.83
2023-05-23T07:51:07.505Z,1006.85
2023-05-23T07:52:07.518Z,1006.94
2023-05-23T07:53:07.500Z,1006.93
2023-05-23T07:54:07.456Z,1006.92
2023-05-23T07:55:07.458Z,1006.95
2023-05-23T07:56:07.494Z,1006.95
2023-05-23T07:57:07.436Z,1007.02
2023-05-23T07:58:07.623Z,1006.96
2023-05-23T07:59:07.403Z,1006.96
2023-05-23T08:00:07.404Z,1007.00
2023-05-23T08:01:07.374Z,1007.00
2023-05-23T08:02:07.432Z,1007.06
2023-05-23T08:03:07.384Z,1007.03
2023-05-23T08:04:07.426Z,1007.04
2023-05-23T08:05:07.365Z,1007.03
2023-05-23T08:06:07.310Z,1007.03
2023-05-23T08:07:07.308Z,1007.01
2023-05-23T08:08:07.291Z,1007.04
2023-05-23T08:09:07.326Z,1006.99
2023-05-23T08:10:07.261Z,1007.05
2023-05-23T08:11:07.244Z,1007.11
2023-05-23T08:12:07.239Z,1007.06
2023-05-23T08:13:07.227Z,1007.04
2023-05-23T08:14:07.212Z,1007.04
2023-05-23T08:15:07.225Z,1007.08
2023-05-23T08:16:07.193Z,1007.12
2023-05-23T08:17:07.219Z,1007.10
2023-05-23T08:18:07.238Z,1007.15
2023-05-23T08:19:07.155Z,1007.07
2023-05-23T08:20:08.176Z,1007.12
2023-05-23T08:21:07.113Z,1007.09
2023-05-23T08:22:07.118Z,1007.12
2023-05-23T08:23:07.092Z,1007.15
2023-05-23T08:24:07.088Z,1007.18
2023-05-23T08:25:07.060Z,1007.15
2023-05-23T08:26:07.078Z,1007.15
2023-05-23T08:27:07.064Z,1007.08
2023-05-23T08:28:07.041Z,1007.21
2023-05-23T08:29:07.012Z,1007.17
2023-05-23T08:30:07.002Z,1007.17
2023-05-23T08:31:07.025Z,1007.17
2023-05-23T08:32:07.016Z,1007.13
2023-05-23T08:33:06.991Z,1007.16
2023-05-23T08:34:06.949Z,1007.23
2023-05-23T08:35:06.927Z,1007.17
2023-05-23T08:36:06.910Z,1007.25
2023-05-23T08:37:06.916Z,1007.16
2023-05-23T08:38:06.913Z,1007.21
2023-05-23T08:39:06.898Z,1007.25
2023-05-23T08:40:06.874Z,1007.24
2023-05-23T08:41:06.891Z,1007.25
2023-05-23T08:42:06.874Z,1007.18
2023-05-23T08:43:06.882Z,1007.30
2023-05-23T08:44:06.801Z,1007.35
2023-05-23T08:45:06.795Z,1007.23
2023-05-23T08:46:06.796Z,1007.20
2023-05-23T08:47:06.757Z,1007.30
2023-05-23T08:48:06.807Z,1007.28
2023-05-23T08:49:06.764Z,1007.31
2023-05-23T08:50:06.722Z,1007.39
2023-05-23T08:51:06.717Z,1007.37
2023-05-23T08:52:06.711Z,1007.40
2023-05-23T08:53:06.677Z,1007.48
2023-05-23T08:54:06.908Z,1007.45
2023-05-23T08:55:06.654Z,1007.47
2023-05-23T08:56:06.644Z,1007.45
2023-05-23T08:57:06.633Z,1007.50
2023-05-23T08:58:06.606Z,1007.51
2023-05-23T08:59:06.599Z,1007.52
2023-05-23T09:00:06.841Z,1007.48
2023-05-23T09:01:06.589Z,1007.64
2023-05-23T09:02:06.565Z,1007.56
2023-05-23T09:03:06.628Z,1007.63
2023-05-23T09:04:06.689Z,1007.54
2023-05-23T09:05:06.556Z,1007.61
2023-05-23T09:06:06.580Z,1007.66
2023-05-23T09:07:06.504Z,1007.58
2023-05-23T09:08:06.487Z,1007.59
2023-05-23T09:09:06.475Z,1007.58
2023-05-23T09:10:06.489Z,1007.63
2023-05-23T09:11:06.453Z,1007.59
2023-05-23T09:12:06.479Z,1007.70
2023-05-23T09:13:06.419Z,1007.63
2023-05-23T09:14:06.457Z,1007.71
2023-05-23T09:15:06.392Z,1007.64
2023-05-23T09:16:06.461Z,1007.67
2023-05-23T09:17:06.387Z,1007.72
2023-05-23T09:18:06.480Z,1007.75
2023-05-23T09:19:06.451Z,1007.71
2023-05-23T09:20:06.329Z,1007.70
2023-05-23T09:21:06.335Z,1007.78
2023-05-23T09:22:06.300Z,1007.79
2023-05-23T09:23:06.304Z,1007.77
2023-05-23T09:24:06.270Z,1007.74
2023-05-23T09:25:06.265Z,1007.81
2023-05-23T09:26:06.250Z,1007.78
2023-05-23T09:27:06.224Z,1007.73
2023-05-23T09:28:06.280Z,1007.79
2023-05-23T09:29:06.220Z,1007.80
2023-05-23T09:30:06.188Z,1007.86
2023-05-23T09:31:06.245Z,1007.82
2023-05-23T09:32:06.166Z,1007.84
2023-05-23T09:33:06.376Z,1007.85
2023-05-23T09:34:06.217Z,1007.86
2023-05-23T09:35:06.139Z,1007.87
2023-05-23T09:36:06.111Z,1007.93
2023-05-23T09:37:06.096Z,1007.92
2023-05-23T09:38:06.107Z,1007.86
2023-05-23T09:39:06.090Z,1007.82
2023-05-23T09:40:06.109Z,1007.85
2023-05-23T09:41:06.043Z,1007.93
2023-05-23T09:42:06.045Z,1007.86
2023-05-23T09:43:06.020Z,1007.80
2023-05-23T09:44:06.003Z,1007.88
2023-05-23T09:45:06.023Z,1007.81
2023-05-23T09:46:05.992Z,1007.87
2023-05-23T09:47:06.014Z,1007.90
2023-05-23T09:48:05.994Z,1007.78
2023-05-23T09:49:05.939Z,1007.81
2023-05-23T09:50:05.985Z,1007.91
2023-05-23T09:51:05.927Z,1007.86
2023-05-23T09:52:05.909Z,1007.85
2023-05-23T09:53:05.893Z,1007.92
2023-05-23T09:54:05.891Z,1007.90
2023-05-23T09:55:06.134Z,1007.97
2023-05-23T09:56:05.869Z,1007.92
2023-05-23T09:57:06.324Z,1007.93
2023-05-23T09:58:05.851Z,1007.95
2023-05-23T09:59:05.804Z,1007.94
2023-05-23T10:00:05.852Z,1007.98
2023-05-23T10:01:05.891Z,1007.99
2023-05-23T10:02:05.809Z,1007.99
2023-05-23T10:03:05.803Z,1007.94
2023-05-23T10:04:05.779Z,1007.94
2023-05-23T10:05:05.731Z,1008.00
2023-05-23T10:06:05.723Z,1007.98
2023-05-23T10:07:05.747Z,1007.96
2023-05-23T10:08:05.703Z,1007.96
2023-05-23T10:09:05.709Z,1007.98
2023-05-23T10:10:05.685Z,1008.00
2023-05-23T10:11:05.659Z,1008.04
2023-05-23T10:12:05.632Z,1008.02
2023-05-23T10:13:05.641Z,1008.02
2023-05-23T10:14:05.618Z,1007.99
2023-05-23T10:15:05.637Z,1008.01
2023-05-23T10:16:05.570Z,1007.98
2023-05-23T10:17:05.655Z,1008.07
2023-05-23T10:18:05.563Z,1008.02
2023-05-23T10:19:05.641Z,1008.06
2023-05-23T10:20:05.526Z,1008.06
2023-05-23T10:21:05.541Z,1008.07
2023-05-23T10:22:05.497Z,1008.04
2023-05-23T10:23:05.507Z,1008.09
2023-05-23T10:24:05.495Z,1008.15
2023-05-23T10:25:05.481Z,1008.18
2023-05-23T10:26:05.475Z,1008.16
2023-05-23T10:27:05.454Z,1008.16
2023-05-23T10:28:05.434Z,1008.06
2023-05-23T10:29:05.416Z,1008.13
2023-05-23T10:30:05.455Z,1008.14
2023-05-23T10:31:05.413Z,1008.16
2023-05-23T10:32:05.377Z,1008.23
2023-05-23T10:33:05.512Z,1008.24
2023-05-23T10:34:05.340Z,1008.29
2023-05-23T10:35:05.338Z,1008.34
2023-05-23T10:36:05.398Z,1008.38
2023-05-23T10:37:05.341Z,1008.33
2023-05-23T10:38:05.309Z,1008.40
2023-05-23T10:39:05.281Z,1008.40
2023-05-23T10:40:05.271Z,1008.37
2023-05-23T10:41:05.272Z,1008.37
2023-05-23T10:42:05.240Z,1008.36
2023-05-23T10:43:05.228Z,1008.39
2023-05-23T10:44:05.228Z,1008.34
2023-05-23T10:45:05.217Z,1008.37
2023-05-23T10:46:05.353Z,1008.44
2023-05-23T10:47:05.202Z,1008.38
2023-05-23T10:48:05.183Z,1008.41
2023-05-23T10:49:05.144Z,1008.40
2023-05-23T10:50:05.153Z,1008.43
2023-05-23T10:51:05.115Z,1008.40
2023-05-23T10:52:05.128Z,1008.44
2023-05-23T10:53:05.093Z,1008.48
2023-05-23T10:54:05.082Z,1008.45
2023-05-23T10:55:05.107Z,1008.48
2023-05-23T10:56:05.050Z,1008.51
2023-05-23T10:57:05.080Z,1008.43
2023-05-23T10:58:05.124Z,1008.44
2023-05-23T10:59:05.018Z,1008.51
2023-05-23T11:00:05.011Z,1008.43
2023-05-23T11:01:04.999Z,1008.47
2023-05-23T11:02:05.014Z,1008.42
2023-05-23T11:03:05.033Z,1008.46
2023-05-23T11:04:05.245Z,1008.41
2023-05-23T11:05:04.945Z,1008.46
2023-05-23T11:06:04.955Z,1008.38
2023-05-23T11:07:04.919Z,1008.38
2023-05-23T11:08:04.908Z,1008.42
2023-05-23T11:09:07.296Z,1008.42
2023-05-23T11:10:04.958Z,1008.46
2023-05-23T11:11:04.869Z,1008.40
2023-05-23T11:12:04.862Z,1008.45
2023-05-23T11:13:04.840Z,1008.45
2023-05-23T11:14:04.842Z,1008.46
2023-05-23T11:15:04.840Z,1008.56
2023-05-23T11:16:04.883Z,1008.49
2023-05-23T11:17:04.807Z,1008.54
2023-05-23T11:18:04.791Z,1008.53
2023-05-23T11:19:04.789Z,1008.49
2023-05-23T11:20:04.765Z,1008.57
2023-05-23T11:21:04.737Z,1008.53
2023-05-23T11:22:04.768Z,1008.48
2023-05-23T11:23:04.702Z,1008.48
2023-05-23T11:24:04.683Z,1008.47
2023-05-23T11:25:04.683Z,1008.52
2023-05-23T11:26:04.660Z,1008.49
2023-05-23T11:27:04.709Z,1008.53
2023-05-23T11:28:04.641Z,1008.55
2023-05-23T11:29:04.659Z,1008.52
2023-05-23T11:30:04.615Z,1008.47
2023-05-23T11:31:04.600Z,1008.54
2023-05-23T11:32:04.716Z,1008.49
2023-05-23T11:33:04.684Z,1008.51
2023-05-23T11:34:04.556Z,1008.43
2023-05-23T11:35:04.568Z,1008.47
2023-05-23T11:36:04.526Z,1008.52
2023-05-23T11:37:04.531Z,1008.55
2023-05-23T11:38:04.513Z,1008.56
2023-05-23T11:39:04.561Z,1008.61
2023-05-23T11:40:04.486Z,1008.65
2023-05-23T11:41:04.499Z,1008.61
2023-05-23T11:42:04.462Z,1008.63
2023-05-23T11:43:04.467Z,1008.65
2023-05-23T11:44:04.455Z,1008.61
2023-05-23T11:45:04.470Z,1008.61
2023-05-23T11:46:04.421Z,1008.68
2023-05-23T11:47:04.392Z,1008.62
2023-05-23T11:48:04.510Z,1008.65
2023-05-23T11:49:04.380Z,1008.65
2023-05-23T11:50:04.552Z,1008.62
2023-05-23T11:51:04.370Z,1008.64
2023-05-23T11:52:04.409Z,1008.61
2023-05-23T11:53:04.331Z,1008.60
2023-05-23T11:54:04.318Z,1008.64
2023-05-23T11:55:04.361Z,1008.65
2023-05-23T11:56:04.328Z,1008.64
2023-05-23T11:57:04.273Z,1008.59
2023-05-23T11:58:04.244Z,1008.58
2023-05-23T11:59:04.232Z,1008.61
2023-05-23T12:00:04.217Z,1008.62
2023-05-23T12:01:04.233Z,1008.65
2023-05-23T12:02:04.268Z,1008.51
2023-05-23T12:03:04.263Z,1008.56
2023-05-23T12:04:04.389Z,1008.66
2023-05-23T12:05:04.243Z,1008.68